Terminal Aerodrome Forecast
Issued by NWS Northern Indiana

Home | Current Version | Previous Version | Text Only | Print | Product List | Glossary On
Versions: 1 2 3 4 5 6 7 8 9 10 11 12 13 14 15 16
000
FTUS43 KIWX 012300
TAFFWA
TAF
KFWA 012320Z 0200/0224 23011KT P6SM SCT050 BKN100
     FM020800 26003KT 5SM -SHRA BR VCTS BKN020CB
     FM021500 29008KT P6SM SCT035=

USA.gov is the U.S. government's official web portal to all federal, state and local government web resources and services.